createdAt,value
2022-12-20T04:49:47.415Z,102122.66
2022-12-20T04:53:09.478Z,102122.66
2022-12-20T04:56:12.294Z,102119.88
2022-12-20T04:59:15.347Z,102128.66
2022-12-20T05:02:18.303Z,102137.53
2022-12-20T05:05:21.740Z,102145.22
2022-12-20T05:08:24.639Z,102135.00
2022-12-20T05:11:27.592Z,102140.25
2022-12-20T05:14:30.059Z,102150.44
2022-12-20T05:17:33.027Z,102145.41
2022-12-20T05:20:36.613Z,102151.41
2022-12-20T05:23:58.356Z,102141.13
2022-12-20T05:27:01.383Z,102144.53
2022-12-20T05:30:04.757Z,102151.44
2022-12-20T05:33:07.759Z,102151.31
2022-12-20T05:36:10.495Z,102155.59
2022-12-20T05:39:13.214Z,102154.88
2022-12-20T05:42:16.061Z,102159.16
2022-12-20T05:45:18.894Z,102154.00
2022-12-20T05:48:21.958Z,102162.31
2022-12-20T05:51:24.945Z,102147.81
2022-12-20T05:54:27.991Z,102150.59
2022-12-20T05:57:31.538Z,102144.31
2022-12-20T06:00:35.178Z,102136.59
2022-12-20T06:03:39.461Z,102131.50
2022-12-20T06:06:42.295Z,102117.47
2022-12-20T06:09:45.562Z,102120.66
2022-12-20T06:12:48.333Z,102115.41
2022-12-20T06:15:51.743Z,102122.38
2022-12-20T06:18:54.472Z,102100.75
2022-12-20T06:21:59.364Z,102107.53
2022-12-20T06:25:02.283Z,102104.19
2022-12-20T06:28:07.564Z,102105.66
2022-12-20T06:31:11.125Z,102108.25
2022-12-20T06:34:14.028Z,102110.88
2022-12-20T06:37:16.600Z,102111.81
2022-12-20T06:40:20.710Z,102105.06
2022-12-20T06:43:23.128Z,102101.56
2022-12-20T06:46:27.342Z,102092.97
2022-12-20T06:49:31.273Z,102096.59
2022-12-20T06:52:34.143Z,102095.53
2022-12-20T06:55:36.531Z,102093.78
2022-12-20T06:58:39.373Z,102078.47
2022-12-20T07:01:42.127Z,102087.06
2022-12-20T07:04:45.157Z,102088.88
2022-12-20T07:07:47.569Z,102086.50
2022-12-20T07:10:52.871Z,102076.22
2022-12-20T07:14:00.030Z,102074.56
2022-12-20T07:17:03.885Z,102076.69
2022-12-20T07:20:13.017Z,102074.16
2022-12-20T07:23:16.670Z,102068.97
2022-12-20T07:26:19.042Z,102079.50
2022-12-20T07:29:21.703Z,102077.44
2022-12-20T07:32:24.175Z,102086.84
2022-12-20T07:35:28.868Z,102088.91
2022-12-20T07:38:31.601Z,102095.16
2022-12-20T07:41:34.292Z,102096.12
2022-12-20T07:44:38.900Z,102091.13
2022-12-20T07:47:41.520Z,102081.22
2022-12-20T07:50:43.993Z,102082.13
2022-12-20T07:54:00.367Z,102089.38
2022-12-20T07:57:12.561Z,102079.28
2022-12-20T08:00:16.421Z,102081.88
2022-12-20T08:03:23.677Z,102080.31
2022-12-20T08:06:26.352Z,102078.69
2022-12-20T08:09:35.308Z,102062.50
2022-12-20T08:12:38.837Z,102057.94
2022-12-20T08:15:41.615Z,102046.44
2022-12-20T08:18:44.597Z,102044.63
2022-12-20T08:21:48.076Z,102043.63
2022-12-20T08:24:50.516Z,102042.72
2022-12-20T08:27:54.699Z,102033.97
2022-12-20T08:31:07.965Z,102039.03
2022-12-20T08:34:11.377Z,102041.75
2022-12-20T08:37:17.591Z,102040.22
2022-12-20T08:40:21.055Z,102039.81
2022-12-20T08:43:23.460Z,102040.31
2022-12-20T08:46:26.788Z,102033.87
2022-12-20T08:49:29.499Z,102034.25
2022-12-20T08:52:32.499Z,102036.87
2022-12-20T08:55:35.475Z,102027.44
2022-12-20T08:58:39.395Z,102018.59
2022-12-20T09:01:42.040Z,102027.69
2022-12-20T09:04:45.229Z,102033.28
2022-12-20T09:07:47.973Z,102028.44
2022-12-20T09:10:52.006Z,102034.53
2022-12-20T09:13:57.367Z,102027.00
2022-12-20T09:17:00.271Z,102038.34
2022-12-20T09:20:03.285Z,102042.59
2022-12-20T09:23:06.069Z,102032.09
2022-12-20T09:26:11.952Z,102032.28
2022-12-20T09:29:18.130Z,102027.44
2022-12-20T09:32:24.867Z,102024.97
2022-12-20T09:35:28.076Z,102029.47
2022-12-20T09:38:32.234Z,102013.03
2022-12-20T09:41:39.507Z,101993.34
2022-12-20T09:44:42.930Z,101979.09
2022-12-20T09:47:45.969Z,101979.78
2022-12-20T09:51:16.367Z,101976.37
2022-12-20T09:54:34.501Z,101972.16
2022-12-20T09:57:39.955Z,101969.63
2022-12-20T10:00:53.267Z,101981.63
2022-12-20T10:03:59.942Z,101979.37
2022-12-20T10:07:09.331Z,101972.69
2022-12-20T10:10:27.779Z,101966.72
2022-12-20T10:13:46.623Z,101960.88
2022-12-20T10:16:56.833Z,101960.28
2022-12-20T10:20:08.979Z,101957.44
2022-12-20T10:23:36.514Z,101943.69
2022-12-20T10:26:39.404Z,101948.19
2022-12-20T10:29:42.962Z,101942.09
2022-12-20T10:32:48.617Z,101938.69
2022-12-20T10:35:52.267Z,101924.19
2022-12-20T10:38:59.893Z,101921.28
2022-12-20T10:42:02.862Z,101902.75
2022-12-20T10:45:23.523Z,101901.34
2022-12-20T10:48:40.155Z,101893.78
2022-12-20T10:51:52.684Z,101897.38
2022-12-20T10:54:55.445Z,101893.59
2022-12-20T10:58:03.738Z,101886.19
2022-12-20T11:01:13.513Z,101893.25
2022-12-20T11:04:25.993Z,101875.06
2022-12-20T11:07:32.073Z,101857.63
2022-12-20T11:10:35.189Z,101866.25
2022-12-20T11:13:38.048Z,101857.66
2022-12-20T11:16:40.606Z,101851.75
2022-12-20T11:19:49.616Z,101838.09
2022-12-20T11:23:01.937Z,101838.16
2022-12-20T11:26:19.196Z,101834.78
2022-12-20T11:29:36.971Z,101840.00
2022-12-20T11:33:11.795Z,101830.28
2022-12-20T11:36:38.213Z,101813.84
2022-12-20T11:39:58.762Z,101821.41
2022-12-20T11:43:13.314Z,101824.88
2022-12-20T11:46:31.087Z,101816.28
2022-12-20T11:50:11.137Z,101812.97
2022-12-20T11:53:20.982Z,101809.63
2022-12-20T11:56:45.362Z,101807.91
2022-12-20T11:59:55.687Z,101806.94
2022-12-20T12:03:40.429Z,101798.31
2022-12-20T12:06:53.569Z,101807.09
2022-12-20T12:10:14.493Z,101795.13
2022-12-20T12:13:29.353Z,101786.50
2022-12-20T12:16:44.655Z,101790.81
2022-12-20T12:19:51.029Z,101786.50
2022-12-20T12:23:01.409Z,101782.22
2022-12-20T12:26:13.504Z,101778.84
2022-12-20T12:29:17.828Z,101774.56
2022-12-20T12:32:44.475Z,101769.41
2022-12-20T12:36:16.521Z,101773.53
2022-12-20T12:39:38.123Z,101774.38
2022-12-20T12:43:13.027Z,101761.41
2022-12-20T12:46:29.791Z,101756.91
2022-12-20T12:49:33.957Z,101753.50
2022-12-20T12:52:49.565Z,101754.25
2022-12-20T12:56:07.531Z,101746.56
2022-12-20T12:59:40.497Z,101754.41
2022-12-20T13:02:51.523Z,101757.00
2022-12-20T13:05:54.282Z,101756.22
2022-12-20T13:08:56.615Z,101755.31
2022-12-20T13:12:02.406Z,101746.63
2022-12-20T13:15:20.265Z,101744.88
2022-12-20T13:18:24.687Z,101736.97
2022-12-20T13:21:35.336Z,101742.97
2022-12-20T13:24:42.457Z,101743.06
2022-12-20T13:27:44.885Z,101734.38
2022-12-20T13:31:09.874Z,101728.31
2022-12-20T13:34:58.667Z,101724.00
2022-12-20T13:38:07.383Z,101727.47
2022-12-20T13:41:20.451Z,101720.59
2022-12-20T13:44:41.456Z,101716.31
2022-12-20T13:48:05.059Z,101722.38
2022-12-20T13:51:17.948Z,101718.84
2022-12-20T13:54:26.844Z,101717.97
2022-12-20T13:57:43.486Z,101720.59
2022-12-20T14:00:47.708Z,101710.19
2022-12-20T14:03:51.650Z,101691.16
2022-12-20T14:06:58.527Z,101687.72
2022-12-20T14:10:04.601Z,101687.72
2022-12-20T14:13:25.411Z,101680.81
2022-12-20T14:16:30.960Z,101684.25
2022-12-20T14:19:33.653Z,101682.56
2022-12-20T14:22:37.358Z,101676.47
2022-12-20T14:25:48.980Z,101678.25
2022-12-20T14:28:54.723Z,101676.53
2022-12-20T14:31:57.323Z,101674.81
2022-12-20T14:35:00.154Z,101672.16
2022-12-20T14:38:04.244Z,101656.59
2022-12-20T14:41:35.185Z,101652.28
2022-12-20T14:44:38.476Z,101647.03
2022-12-20T14:47:55.990Z,101651.31
2022-12-20T14:50:59.458Z,101642.66
2022-12-20T14:54:02.804Z,101637.47
2022-12-20T14:57:11.897Z,101635.78
2022-12-20T15:00:17.802Z,101634.06
2022-12-20T15:03:23.405Z,101647.81
2022-12-20T15:06:44.176Z,101653.78
2022-12-20T15:09:46.614Z,101657.19
2022-12-20T15:12:49.477Z,101651.16
2022-12-20T15:15:52.321Z,101654.47
2022-12-20T15:18:57.277Z,101649.22
2022-12-20T15:22:00.312Z,101650.81
2022-12-20T15:25:16.338Z,101657.66
2022-12-20T15:28:21.854Z,101644.78
2022-12-20T15:31:33.058Z,101641.16
2022-12-20T15:34:38.654Z,101646.34
2022-12-20T15:37:41.730Z,101642.00
2022-12-20T15:40:46.755Z,101654.16
2022-12-20T15:43:56.963Z,101657.59
2022-12-20T15:46:59.517Z,101661.91
2022-12-20T15:50:02.274Z,101671.34
2022-12-20T15:53:04.711Z,101666.16
2022-12-20T15:56:17.886Z,101667.06
2022-12-20T15:59:57.740Z,101673.09
2022-12-20T16:02:43.360Z,101660.97
2022-12-20T16:05:48.152Z,101668.66
2022-12-20T16:08:50.639Z,101661.66
2022-12-20T16:11:53.729Z,101661.59
2022-12-20T16:14:56.357Z,101662.59
2022-12-20T16:17:59.052Z,101664.31
2022-12-20T16:21:03.588Z,101666.97
2022-12-20T16:24:06.528Z,101664.44
